Time;durP1;ratioP1;P1;durP2;ratioP2;P2;SDS_P1;SDS_P2;PMS_P1;PMS_P2;Temp;Humidity;BMP_temperature;BMP_pressure;BME280_temperature;BME280_humidity;BME280_pressure;Samples;Min_cycle;Max_cycle;Signal;HPM_P1;HPM_P2
2021/11/02 00:01:37;;;;;;;44.20;22.43;;;5.10;99.90;;;;;;4392531;32;20210;-64
2021/11/02 00:04:04;;;;;;;43.10;23.10;;;4.90;99.90;;;;;;4406526;32;20214;-63
2021/11/02 00:06:33;;;;;;;45.60;22.63;;;4.90;99.90;;;;;;4392555;32;20260;-64
2021/11/02 00:09:01;;;;;;;45.43;22.90;;;4.90;99.90;;;;;;4387038;32;20211;-64
2021/11/02 00:11:28;;;;;;;45.23;23.67;;;4.90;99.90;;;;;;4382673;32;20186;-64
2021/11/02 00:13:57;;;;;;;47.27;23.20;;;4.90;99.90;;;;;;4380715;32;20194;-64
2021/11/02 00:16:24;;;;;;;46.30;23.70;;;4.90;99.90;;;;;;4381125;32;20525;-64
2021/11/02 00:18:59;;;;;;;46.40;23.43;;;4.90;99.90;;;;;;4382258;32;20456;-64
2021/11/02 00:21:30;;;;;;;48.30;23.37;;;4.90;99.90;;;;;;4389211;32;20204;-64
2021/11/02 00:24:08;;;;;;;47.17;23.47;;;4.80;99.90;;;;;;4396058;32;20255;-64
2021/11/02 00:26:35;;;;;;;44.73;23.00;;;4.80;99.90;;;;;;4395526;32;20263;-65
2021/11/02 00:29:03;;;;;;;45.27;23.50;;;4.90;99.90;;;;;;4395547;32;20238;-64
2021/11/02 00:31:30;;;;;;;46.40;23.10;;;4.90;99.90;;;;;;4411011;32;20202;-63
2021/11/02 00:33:57;;;;;;;46.50;23.73;;;4.90;99.90;;;;;;4397595;32;20445;-64
2021/11/02 00:36:24;;;;;;;48.47;23.40;;;4.90;99.90;;;;;;4411312;32;20464;-65
2021/11/02 00:38:51;;;;;;;46.43;23.73;;;4.80;99.90;;;;;;4397349;32;20265;-64
2021/11/02 00:41:18;;;;;;;48.37;24.43;;;4.80;99.90;;;;;;4396470;32;20230;-64
2021/11/02 00:43:47;;;;;;;49.83;25.50;;;4.80;99.90;;;;;;4397257;32;20193;-63
2021/11/02 00:46:14;;;;;;;47.13;24.03;;;4.80;99.90;;;;;;4397107;32;20200;-64
2021/11/02 00:48:41;;;;;;;47.93;23.70;;;4.80;99.90;;;;;;4396326;32;20209;-65
2021/11/02 00:51:08;;;;;;;49.30;24.77;;;4.80;99.90;;;;;;4411032;32;20162;-64
2021/11/02 00:53:35;;;;;;;51.00;25.27;;;4.70;99.90;;;;;;4406084;32;20150;-64
2021/11/02 00:56:02;;;;;;;50.97;25.23;;;4.70;99.90;;;;;;4405771;32;20231;-64
2021/11/02 00:58:29;;;;;;;50.50;25.90;;;4.70;99.90;;;;;;4382283;32;20190;-64
2021/11/02 01:00:56;;;;;;;50.80;24.53;;;4.70;99.90;;;;;;4394096;32;20169;-63
2021/11/02 01:03:23;;;;;;;50.27;24.80;;;4.70;99.90;;;;;;4382137;32;20219;-63
2021/11/02 01:05:49;;;;;;;47.17;25.33;;;4.70;99.90;;;;;;4394980;32;20427;-63
2021/11/02 01:08:16;;;;;;;49.77;24.67;;;4.70;99.90;;;;;;4393898;32;20205;-64
2021/11/02 01:10:47;;;;;;;49.50;25.50;;;4.70;99.90;;;;;;4379973;32;20173;-64
2021/11/02 01:13:14;;;;;;;49.20;24.83;;;4.60;99.90;;;;;;4379954;32;20239;-64
2021/11/02 01:15:41;;;;;;;48.00;25.20;;;4.60;99.90;;;;;;4381700;32;20193;-64
2021/11/02 01:18:08;;;;;;;52.53;26.03;;;4.60;99.90;;;;;;4381927;32;20609;-64
2021/11/02 01:20:36;;;;;;;46.30;24.47;;;4.60;99.90;;;;;;4394641;32;20350;-64
2021/11/02 01:23:03;;;;;;;45.97;24.03;;;4.60;99.90;;;;;;4381522;32;20185;-64
2021/11/02 01:25:30;;;;;;;49.53;25.10;;;4.50;99.90;;;;;;4381456;32;20216;-65
2021/11/02 01:27:56;;;;;;;47.70;23.87;;;4.50;99.90;;;;;;4393599;32;20167;-64
2021/11/02 01:30:23;;;;;;;46.63;24.93;;;4.40;99.90;;;;;;4394952;32;20145;-64
2021/11/02 01:32:50;;;;;;;50.17;23.93;;;4.50;99.90;;;;;;4379668;32;20254;-64
2021/11/02 01:35:17;;;;;;;45.80;22.93;;;4.40;99.90;;;;;;4379932;32;20476;-64
2021/11/02 01:37:45;;;;;;;48.27;25.00;;;4.40;99.90;;;;;;4379678;32;20191;-63
2021/11/02 01:40:14;;;;;;;49.33;24.57;;;4.40;99.90;;;;;;4381115;32;20247;-65
2021/11/02 01:42:42;;;;;;;51.23;24.83;;;4.30;99.90;;;;;;4381102;32;20174;-64
2021/11/02 01:45:11;;;;;;;52.17;24.93;;;4.30;99.90;;;;;;4380192;32;20198;-64
2021/11/02 01:47:47;;;;;;;50.57;25.43;;;4.30;99.90;;;;;;4381873;32;20270;-63
2021/11/02 01:50:14;;;;;;;50.70;24.90;;;4.30;99.90;;;;;;4379396;32;20189;-63
2021/11/02 01:52:42;;;;;;;52.37;24.43;;;4.30;99.90;;;;;;4381013;32;20233;-64
2021/11/02 01:55:11;;;;;;;51.47;24.67;;;4.30;99.90;;;;;;4379794;32;20181;-65
2021/11/02 01:57:39;;;;;;;48.00;23.60;;;4.30;99.90;;;;;;4380580;32;20190;-64
2021/11/02 02:00:10;;;;;;;53.00;25.93;;;4.30;99.90;;;;;;4393238;32;20154;-64
2021/11/02 02:02:55;;;;;;;49.20;25.50;;;4.30;99.90;;;;;;4394611;32;20427;-64
2021/11/02 02:05:49;;;;;;;45.70;23.83;;;4.20;99.90;;;;;;4380538;32;20200;-64
2021/11/02 02:08:30;;;;;;;49.70;24.93;;;4.20;99.90;;;;;;4393279;32;20225;-64
2021/11/02 02:11:12;;;;;;;46.93;24.37;;;4.10;99.90;;;;;;4381304;32;20196;-64
2021/11/02 02:14:15;;;;;;;47.30;23.97;;;4.10;99.90;;;;;;4381325;32;20269;-64
2021/11/02 02:16:48;;;;;;;45.47;23.13;;;4.10;99.90;;;;;;4380835;32;20177;-64
2021/11/02 02:19:49;;;;;;;50.57;24.67;;;4.10;99.90;;;;;;4380550;32;20237;-65
2021/11/02 02:22:35;;;;;;;46.53;24.13;;;4.10;99.90;;;;;;4395860;32;20505;-64
2021/11/02 02:25:32;;;;;;;47.47;24.10;;;4.00;99.90;;;;;;4385900;32;20423;-64
2021/11/02 02:27:58;;;;;;;50.30;23.60;;;4.00;99.90;;;;;;4348036;33;20202;-64
2021/11/02 02:30:27;;;;;;;50.93;25.30;;;4.10;99.90;;;;;;4362870;32;20417;-64
2021/11/02 02:32:55;;;;;;;47.20;24.07;;;4.00;99.90;;;;;;4350039;32;20276;-64
2021/11/02 02:35:25;;;;;;;49.87;24.63;;;4.00;99.90;;;;;;4350047;32;20593;-64
2021/11/02 02:37:53;;;;;;;53.53;25.07;;;4.00;99.90;;;;;;4362363;32;20192;-64
2021/11/02 02:40:21;;;;;;;47.93;24.23;;;4.00;99.90;;;;;;4349757;32;20222;-64
2021/11/02 02:42:51;;;;;;;49.90;24.80;;;4.00;99.90;;;;;;4362441;32;20158;-64
2021/11/02 02:45:19;;;;;;;49.93;24.50;;;3.90;99.90;;;;;;4350085;32;20186;-64
2021/11/02 02:47:48;;;;;;;50.43;24.60;;;3.90;99.90;;;;;;4347980;33;20536;-64
2021/11/02 02:50:18;;;;;;;47.43;24.17;;;3.90;99.90;;;;;;4360468;32;20193;-65
2021/11/02 02:52:46;;;;;;;47.10;24.80;;;3.90;99.90;;;;;;4360663;33;20572;-64
2021/11/02 02:55:15;;;;;;;46.47;24.30;;;3.90;99.90;;;;;;4360360;33;20177;-65
2021/11/02 02:57:44;;;;;;;49.67;25.17;;;3.90;99.90;;;;;;4348628;33;20241;-65
2021/11/02 03:00:12;;;;;;;46.77;24.30;;;3.80;99.90;;;;;;4361786;33;20529;-65
2021/11/02 03:02:41;;;;;;;49.37;25.07;;;3.80;99.90;;;;;;4360344;33;20254;-65
2021/11/02 03:05:10;;;;;;;50.13;25.03;;;3.80;99.90;;;;;;4373986;32;20257;-64
2021/11/02 03:07:38;;;;;;;45.03;25.30;;;3.80;99.90;;;;;;4380444;32;20200;-65
2021/11/02 03:10:07;;;;;;;54.67;25.57;;;3.80;99.90;;;;;;4379059;32;20253;-65
2021/11/02 03:12:36;;;;;;;54.53;25.90;;;3.70;99.90;;;;;;4381037;32;20206;-63
2021/11/02 03:18:27;;;;;;;53.57;26.73;;;3.70;99.90;;;;;;4379875;32;20183;-63
2021/11/02 03:49:00;;;;;;;50.27;26.17;;;3.60;99.90;;;;;;4383124;32;20231;-63
2021/11/02 03:54:34;;;;;;;53.43;26.20;;;3.60;99.90;;;;;;4383567;32;20190;-63
2021/11/02 04:33:16;;;;;;;49.90;24.83;;;3.30;99.90;;;;;;4394780;32;20266;-63
2021/11/02 05:11:35;;;;;;;54.07;25.47;;;3.20;99.90;;;;;;4394092;32;20174;-63
2021/11/02 05:47:39;;;;;;;49.47;24.57;;;3.00;99.90;;;;;;4289301;33;20249;-63
2021/11/02 05:50:24;;;;;;;54.83;26.13;;;3.00;99.90;;;;;;4289506;33;20598;-64
2021/11/02 05:58:12;;;;;;;50.70;24.53;;;3.00;99.90;;;;;;4331362;33;20196;-64
2021/11/02 06:01:02;;;;;;;51.30;26.10;;;3.10;99.90;;;;;;4320758;33;20180;-65
2021/11/02 06:06:18;;;;;;;55.00;26.00;;;3.10;99.90;;;;;;4320488;33;20443;-65
2021/11/02 06:09:03;;;;;;;52.27;26.13;;;3.00;99.90;;;;;;4320450;33;20173;-66
2021/11/02 06:28:44;;;;;;;54.73;26.33;;;3.10;99.90;;;;;;4376126;32;20560;-65
2021/11/02 06:31:15;;;;;;;53.63;26.97;;;3.20;99.90;;;;;;4378003;32;20505;-66
2021/11/02 06:33:50;;;;;;;56.07;26.97;;;3.20;99.90;;;;;;4376361;32;20198;-66
2021/11/02 06:55:28;;;;;;;48.60;25.40;;;3.60;99.90;;;;;;4384102;32;20224;-67
2021/11/02 07:10:56;;;;;;;53.27;25.90;;;3.80;99.90;;;;;;4379607;32;20184;-67
2021/11/02 07:15:41;;;;;;;46.97;24.73;;;4.20;99.90;;;;;;4333646;33;20174;-67
2021/11/02 07:18:18;;;;;;;49.07;24.60;;;4.20;99.90;;;;;;4345529;33;20166;-67
2021/11/02 08:48:08;;;;;;;33.37;19.37;;;9.00;99.90;;;;;;4394033;32;20152;-68
2021/11/02 08:50:43;;;;;;;34.00;18.83;;;8.90;99.90;;;;;;4393643;32;20239;-68
2021/11/02 08:53:12;;;;;;;34.30;19.73;;;9.00;99.90;;;;;;4384893;32;20210;-69
2021/11/02 08:55:41;;;;;;;35.40;19.97;;;9.10;99.90;;;;;;4392245;32;20235;-69
2021/11/02 08:58:08;;;;;;;34.60;19.67;;;9.20;99.90;;;;;;4391832;32;20210;-68
2021/11/02 09:00:36;;;;;;;34.83;19.10;;;9.30;99.90;;;;;;4391795;32;20577;-68
2021/11/02 09:03:18;;;;;;;34.07;19.33;;;9.20;99.90;;;;;;4380190;32;20272;-68
2021/11/02 09:05:53;;;;;;;32.53;18.67;;;9.20;99.90;;;;;;4382464;32;20183;-68
2021/11/02 09:08:20;;;;;;;36.93;19.67;;;9.20;99.90;;;;;;4392544;32;20166;-67
2021/11/02 09:10:48;;;;;;;34.77;19.43;;;9.40;99.90;;;;;;4394220;32;20191;-67
2021/11/02 09:13:16;;;;;;;34.20;19.67;;;9.60;99.90;;;;;;4392577;32;20553;-67
2021/11/02 09:15:47;;;;;;;34.40;19.10;;;9.90;99.90;;;;;;4394651;32;20572;-68
2021/11/02 09:18:14;;;;;;;34.17;18.90;;;10.00;99.90;;;;;;4393679;32;20147;-68
2021/11/02 09:20:42;;;;;;;31.10;18.43;;;10.10;99.90;;;;;;4392434;32;20194;-67
2021/11/02 09:23:09;;;;;;;32.93;17.93;;;10.10;99.90;;;;;;4393098;32;20487;-67
2021/11/02 09:25:36;;;;;;;31.67;18.10;;;10.00;99.90;;;;;;4384403;32;20259;-67
2021/11/02 09:28:03;;;;;;;34.90;18.90;;;10.00;99.90;;;;;;4378592;32;20183;-67
2021/11/02 09:30:31;;;;;;;30.43;18.30;;;10.00;99.90;;;;;;4377086;32;20198;-67
2021/11/02 09:32:58;;;;;;;31.47;18.83;;;10.00;99.90;;;;;;4378155;32;20184;-68
2021/11/02 09:35:27;;;;;;;30.60;17.97;;;10.10;99.90;;;;;;4376988;32;20255;-69
2021/11/02 09:38:31;;;;;;;35.17;19.27;;;10.10;99.90;;;;;;4380081;32;20210;-68
2021/11/02 09:41:13;;;;;;;31.77;18.00;;;10.00;99.90;;;;;;4378064;32;20160;-67
2021/11/02 09:44:20;;;;;;;31.43;17.20;;;10.00;99.90;;;;;;4380784;32;20276;-66
2021/11/02 09:47:05;;;;;;;29.57;16.80;;;10.10;99.90;;;;;;4390866;32;20533;-66
2021/11/02 09:50:14;;;;;;;29.67;16.50;;;10.10;99.90;;;;;;4392679;32;20167;-66
2021/11/02 09:53:09;;;;;;;30.77;16.47;;;10.10;99.90;;;;;;4393467;32;20263;-66
2021/11/02 09:56:23;;;;;;;28.00;15.70;;;10.20;99.90;;;;;;4393408;32;20143;-65
2021/11/02 09:58:59;;;;;;;30.73;16.20;;;10.40;99.90;;;;;;4335432;33;20190;-66
2021/11/02 10:01:33;;;;;;;29.73;16.70;;;10.70;99.90;;;;;;4333668;33;20262;-67
2021/11/02 10:04:37;;;;;;;26.47;15.33;;;10.90;99.90;;;;;;4335484;33;20518;-67
2021/11/02 10:07:18;;;;;;;27.83;16.37;;;11.20;99.90;;;;;;4335496;33;20231;-66
2021/11/02 10:09:54;;;;;;;27.00;15.67;;;11.40;99.90;;;;;;4335344;33;20164;-66
2021/11/02 10:12:24;;;;;;;27.83;15.13;;;11.70;99.90;;;;;;4346722;33;20152;-67
2021/11/02 10:15:16;;;;;;;28.97;16.23;;;12.10;99.90;;;;;;4335343;33;20194;-68
2021/11/02 10:18:14;;;;;;;27.47;16.10;;;12.40;99.90;;;;;;4335753;33;20278;-67
2021/11/02 10:21:02;;;;;;;30.13;17.03;;;12.60;99.90;;;;;;4326483;33;20604;-65
2021/11/02 10:23:32;;;;;;;27.87;16.30;;;13.20;99.90;;;;;;4321272;33;20531;-66
2021/11/02 10:26:22;;;;;;;27.33;15.90;;;13.60;99.90;;;;;;4331551;33;20172;-67
2021/11/02 10:28:55;;;;;;;29.80;16.13;;;13.70;99.90;;;;;;4318900;33;20244;-64
2021/11/02 10:31:47;;;;;;;27.47;16.17;;;13.80;99.90;;;;;;4320502;33;20214;-65
2021/11/02 10:34:58;;;;;;;27.00;15.83;;;13.40;99.90;;;;;;4378305;32;20199;-64
2021/11/02 10:38:06;;;;;;;28.70;16.90;;;13.10;99.90;;;;;;4319184;33;20280;-66
2021/11/02 10:40:40;;;;;;;26.90;16.23;;;12.60;99.90;;;;;;4318759;33;20291;-66
2021/11/02 10:43:27;;;;;;;25.83;15.60;;;12.30;99.90;;;;;;4318535;33;20563;-65
2021/11/02 10:46:05;;;;;;;27.03;16.50;;;12.10;99.90;;;;;;4332505;33;20140;-65
2021/11/02 10:48:40;;;;;;;26.83;16.23;;;12.00;99.90;;;;;;4320353;33;20211;-68
2021/11/02 10:51:18;;;;;;;28.20;16.40;;;11.90;99.90;;;;;;4319403;33;20176;-67
2021/11/02 10:54:08;;;;;;;29.13;16.40;;;11.90;99.90;;;;;;4333001;33;20149;-66
2021/11/02 10:56:55;;;;;;;29.07;16.30;;;11.90;99.90;;;;;;4320100;33;20274;-66
2021/11/02 10:59:23;;;;;;;25.50;15.33;;;11.80;99.90;;;;;;4335838;33;20238;-66
2021/11/02 11:01:55;;;;;;;24.53;15.70;;;11.50;99.90;;;;;;4330926;33;20191;-66
2021/11/02 11:04:26;;;;;;;28.40;16.13;;;11.40;99.90;;;;;;4320992;33;20195;-66
2021/11/02 11:06:55;;;;;;;32.63;16.80;;;11.30;99.90;;;;;;4335025;33;20225;-69
2021/11/02 11:09:23;;;;;;;28.60;16.03;;;11.20;99.90;;;;;;4334516;33;20609;-69
2021/11/02 11:11:55;;;;;;;26.17;16.03;;;11.20;99.90;;;;;;4335073;33;20169;-66
2021/11/02 11:14:30;;;;;;;28.33;16.10;;;11.10;99.90;;;;;;4352384;32;20222;-67
2021/11/02 11:16:58;;;;;;;28.97;15.73;;;11.00;99.90;;;;;;4376104;32;20195;-66
2021/11/02 11:19:36;;;;;;;30.33;15.27;;;11.00;99.90;;;;;;4389412;32;20490;-66
2021/11/02 11:22:05;;;;;;;35.27;18.07;;;10.80;99.90;;;;;;4393623;32;20182;-68
2021/11/02 11:24:33;;;;;;;30.07;16.03;;;10.70;99.90;;;;;;4392975;32;20167;-65
2021/11/02 11:27:05;;;;;;;38.70;17.13;;;10.60;99.90;;;;;;4391031;32;20179;-67
2021/11/02 11:29:44;;;;;;;47.67;16.83;;;10.60;99.90;;;;;;4391802;32;20522;-68
2021/11/02 11:32:14;;;;;;;40.77;17.27;;;10.60;99.90;;;;;;4391363;32;20247;-65
2021/11/02 11:34:45;;;;;;;30.03;16.40;;;10.60;99.90;;;;;;4391233;32;20171;-69
2021/11/02 11:37:14;;;;;;;30.90;17.03;;;10.60;99.90;;;;;;4391503;32;20174;-66
2021/11/02 11:39:44;;;;;;;47.97;17.73;;;10.60;99.90;;;;;;4393979;32;20403;-66
2021/11/02 11:42:18;;;;;;;28.60;16.37;;;10.60;99.90;;;;;;4391553;32;20167;-65
2021/11/02 11:44:55;;;;;;;28.03;16.40;;;10.60;99.90;;;;;;4387641;32;20222;-65
2021/11/02 11:47:24;;;;;;;31.20;16.50;;;10.50;99.90;;;;;;4377151;32;20175;-67
2021/11/02 11:49:52;;;;;;;34.67;17.70;;;10.50;99.90;;;;;;4380311;32;20180;-68
2021/11/02 11:52:24;;;;;;;36.33;17.73;;;10.50;99.90;;;;;;4391565;32;20239;-67
2021/11/02 11:54:57;;;;;;;30.67;16.53;;;10.50;99.90;;;;;;4392463;32;20172;-68
2021/11/02 11:57:30;;;;;;;33.60;17.20;;;10.60;99.90;;;;;;4390492;32;20601;-67
2021/11/02 12:00:07;;;;;;;31.13;16.93;;;10.60;99.90;;;;;;4391374;32;20211;-66
2021/11/02 12:03:08;;;;;;;31.70;16.93;;;10.60;99.90;;;;;;4392626;32;20179;-68
2021/11/02 12:05:48;;;;;;;31.13;17.37;;;10.60;99.90;;;;;;4392878;32;20201;-66
2021/11/02 12:08:20;;;;;;;30.50;17.00;;;10.70;99.90;;;;;;4395077;32;20512;-66
2021/11/02 12:10:50;;;;;;;30.83;17.83;;;10.70;99.90;;;;;;4378502;32;20210;-67
2021/11/02 12:13:18;;;;;;;32.03;17.30;;;10.80;99.90;;;;;;4380882;32;20509;-67
2021/11/02 12:16:06;;;;;;;45.97;18.33;;;10.70;99.90;;;;;;4380391;32;20199;-67
2021/11/02 12:18:36;;;;;;;29.70;17.87;;;10.80;99.90;;;;;;4393738;32;20227;-67
2021/11/02 12:21:05;;;;;;;28.27;17.33;;;10.80;99.90;;;;;;4396085;32;20190;-68
2021/11/02 12:23:40;;;;;;;32.87;19.03;;;10.80;99.90;;;;;;4394984;32;20558;-66
2021/11/02 12:26:08;;;;;;;41.47;18.60;;;10.80;99.90;;;;;;4386443;32;20186;-66
2021/11/02 12:28:45;;;;;;;38.27;18.23;;;10.80;99.90;;;;;;4378203;32;20203;-66
2021/11/02 12:31:18;;;;;;;35.90;18.87;;;10.80;99.90;;;;;;4379975;32;20183;-67
2021/11/02 12:33:52;;;;;;;35.00;18.10;;;10.80;99.90;;;;;;4392736;32;20179;-67
2021/11/02 12:36:21;;;;;;;32.27;17.73;;;10.70;99.90;;;;;;4395782;32;20175;-68
2021/11/02 12:38:48;;;;;;;32.07;17.50;;;10.70;99.90;;;;;;4393323;32;20179;-68
2021/11/02 12:41:19;;;;;;;33.63;18.50;;;10.70;99.90;;;;;;4392932;32;20219;-67
2021/11/02 12:44:02;;;;;;;34.27;19.17;;;10.70;99.90;;;;;;4393981;32;20235;-66
2021/11/02 12:46:31;;;;;;;32.13;18.40;;;10.70;99.90;;;;;;4379386;32;20176;-67
2021/11/02 12:49:04;;;;;;;31.33;18.20;;;10.70;99.90;;;;;;4385074;32;20552;-68
2021/11/02 12:51:38;;;;;;;30.60;17.83;;;10.70;99.90;;;;;;4393107;32;20231;-67
2021/11/02 12:54:10;;;;;;;31.93;17.93;;;10.70;99.90;;;;;;4389539;32;20255;-69
2021/11/02 12:56:41;;;;;;;34.43;18.93;;;10.70;99.90;;;;;;4368055;32;20214;-68
2021/11/02 12:59:20;;;;;;;30.10;18.47;;;10.70;99.90;;;;;;4381064;32;20236;-67
2021/11/02 13:01:52;;;;;;;36.47;20.07;;;10.70;99.90;;;;;;4394108;32;20171;-67
2021/11/02 13:04:20;;;;;;;30.93;19.03;;;10.70;99.90;;;;;;4382090;32;20218;-67
2021/11/02 13:06:52;;;;;;;34.20;18.57;;;10.70;99.90;;;;;;4380452;32;20198;-68
2021/11/02 13:09:33;;;;;;;35.00;19.23;;;10.70;99.90;;;;;;4390557;32;20228;-68
2021/11/02 13:12:04;;;;;;;31.37;18.50;;;10.60;99.90;;;;;;4400489;32;20155;-69
2021/11/02 13:14:45;;;;;;;32.00;18.60;;;10.70;99.90;;;;;;4394802;32;20178;-68
2021/11/02 13:17:16;;;;;;;34.07;18.97;;;10.60;99.90;;;;;;4384284;32;20544;-68
2021/11/02 13:19:49;;;;;;;34.03;19.57;;;10.60;99.90;;;;;;4388154;32;20321;-68
2021/11/02 13:22:25;;;;;;;33.33;19.20;;;10.50;99.90;;;;;;4388117;32;20210;-68
2021/11/02 13:25:08;;;;;;;38.50;20.60;;;10.50;99.90;;;;;;4388636;32;20217;-68
2021/11/02 13:27:44;;;;;;;36.90;20.43;;;10.40;99.90;;;;;;4388189;32;20179;-68
2021/11/02 13:30:36;;;;;;;38.27;20.60;;;10.30;99.90;;;;;;4385516;32;20182;-67
2021/11/02 13:33:17;;;;;;;33.50;19.63;;;10.20;99.90;;;;;;4386560;32;20762;-68
2021/11/02 13:35:54;;;;;;;36.37;20.33;;;10.20;99.90;;;;;;4386359;32;20218;-68
2021/11/02 13:38:25;;;;;;;34.77;19.43;;;10.10;99.90;;;;;;4380183;32;20571;-68
2021/11/02 13:40:55;;;;;;;37.20;20.17;;;10.00;99.90;;;;;;4393811;32;20218;-68
2021/11/02 13:43:32;;;;;;;71.93;23.37;;;9.90;99.90;;;;;;4379990;32;20455;-68
2021/11/02 13:46:00;;;;;;;43.17;21.43;;;9.90;99.90;;;;;;4384841;32;20541;-68
2021/11/02 13:48:27;;;;;;;38.23;21.07;;;9.90;99.90;;;;;;4408995;32;20404;-68
2021/11/02 13:50:57;;;;;;;36.20;21.00;;;9.80;99.90;;;;;;4395279;32;20247;-68
2021/11/02 13:53:24;;;;;;;35.93;20.73;;;9.80;99.90;;;;;;4394481;32;20207;-68
2021/11/02 13:55:52;;;;;;;39.33;20.70;;;9.70;99.90;;;;;;4395149;32;20182;-69
2021/11/02 13:58:19;;;;;;;37.60;20.57;;;9.60;99.90;;;;;;4394681;32;20236;-68
2021/11/02 14:00:46;;;;;;;36.07;20.57;;;9.60;99.90;;;;;;4394759;32;20237;-68
2021/11/02 14:03:30;;;;;;;40.43;20.23;;;9.50;99.90;;;;;;4394438;32;20576;-68
2021/11/02 14:05:59;;;;;;;38.20;20.27;;;9.50;99.90;;;;;;4391256;32;20205;-69
2021/11/02 14:08:28;;;;;;;35.70;20.47;;;9.50;99.90;;;;;;4384742;32;20191;-68
2021/11/02 14:10:57;;;;;;;35.40;20.77;;;9.50;99.90;;;;;;4379244;32;20174;-68
2021/11/02 14:13:41;;;;;;;39.70;21.33;;;9.40;99.90;;;;;;4379877;32;20232;-68
2021/11/02 14:16:09;;;;;;;37.70;20.33;;;9.30;99.90;;;;;;4395516;32;20154;-68
2021/11/02 14:18:37;;;;;;;38.67;21.40;;;9.30;99.90;;;;;;4377160;32;20195;-66
2021/11/02 14:21:04;;;;;;;37.97;21.43;;;9.20;99.90;;;;;;4383050;32;20264;-68
2021/11/02 14:23:33;;;;;;;39.80;22.07;;;9.20;99.90;;;;;;4380119;32;20255;-68
2021/11/02 14:26:35;;;;;;;40.27;22.00;;;9.10;99.90;;;;;;4391664;32;20202;-68
2021/11/02 14:29:10;;;;;;;36.97;21.40;;;9.10;99.90;;;;;;4314942;33;20199;-68
2021/11/02 14:31:41;;;;;;;40.17;22.33;;;9.00;99.90;;;;;;4304125;33;20184;-68
2021/11/02 14:34:09;;;;;;;37.30;21.67;;;8.90;99.90;;;;;;4304851;33;20193;-67
2021/11/02 14:36:40;;;;;;;41.60;22.43;;;8.80;99.90;;;;;;4307227;33;20239;-68
2021/11/02 14:39:11;;;;;;;39.90;21.57;;;8.80;99.90;;;;;;4319428;33;20195;-67
2021/11/02 14:41:46;;;;;;;40.73;22.87;;;8.70;99.90;;;;;;4318715;33;20289;-67
2021/11/02 14:44:14;;;;;;;39.63;22.93;;;8.70;99.90;;;;;;4331320;33;20280;-67
2021/11/02 14:46:48;;;;;;;40.53;22.00;;;8.70;99.90;;;;;;4319358;33;20177;-67
2021/11/02 14:49:28;;;;;;;42.40;22.97;;;8.60;99.90;;;;;;4331397;33;20205;-67
2021/11/02 14:51:58;;;;;;;42.17;22.97;;;8.60;99.90;;;;;;4317211;33;20254;-68
2021/11/02 14:54:29;;;;;;;40.20;23.10;;;8.50;99.90;;;;;;4318797;33;20262;-68
2021/11/02 14:57:19;;;;;;;39.17;21.97;;;8.50;99.90;;;;;;4318672;33;20282;-67
2021/11/02 14:59:57;;;;;;;41.40;23.27;;;8.50;99.90;;;;;;4318828;33;20223;-67
2021/11/02 15:02:35;;;;;;;45.57;24.33;;;8.40;99.90;;;;;;4318400;33;20557;-67
2021/11/02 15:05:06;;;;;;;47.40;23.70;;;8.40;99.90;;;;;;4341594;32;20179;-68
2021/11/02 15:07:41;;;;;;;43.83;23.43;;;8.40;99.90;;;;;;4388400;32;20592;-68
2021/11/02 15:10:12;;;;;;;44.93;24.13;;;8.40;99.90;;;;;;4394290;32;20221;-68
2021/11/02 15:12:40;;;;;;;44.03;23.60;;;8.40;99.90;;;;;;4395042;32;20173;-66
2021/11/02 15:15:07;;;;;;;49.23;23.90;;;8.40;99.90;;;;;;4394172;32;20171;-68
2021/11/02 15:17:38;;;;;;;47.83;24.67;;;8.40;99.90;;;;;;4394165;32;20175;-68
2021/11/02 15:20:27;;;;;;;47.27;24.37;;;8.40;99.90;;;;;;4394992;32;20179;-68
2021/11/02 15:22:57;;;;;;;47.73;25.20;;;8.40;99.90;;;;;;4394156;32;20232;-68
2021/11/02 15:25:24;;;;;;;46.37;25.40;;;8.40;99.90;;;;;;4394145;32;20259;-68
2021/11/02 15:27:59;;;;;;;52.57;26.57;;;8.40;99.90;;;;;;4407332;32;20402;-68
2021/11/02 15:30:26;;;;;;;51.73;26.97;;;8.40;99.90;;;;;;4394166;32;20178;-69
2021/11/02 15:32:54;;;;;;;48.50;25.67;;;8.40;99.90;;;;;;4393771;32;20229;-68
2021/11/02 15:35:23;;;;;;;49.43;26.53;;;8.40;99.90;;;;;;4407522;32;20509;-68
2021/11/02 15:37:59;;;;;;;50.40;26.17;;;8.40;99.90;;;;;;4407483;32;20173;-67
2021/11/02 15:40:41;;;;;;;50.57;26.50;;;8.30;99.90;;;;;;4395185;32;20198;-69
2021/11/02 15:43:13;;;;;;;48.77;25.47;;;8.30;99.90;;;;;;4397211;32;20215;-68
2021/11/02 15:45:43;;;;;;;46.97;25.93;;;8.30;99.90;;;;;;4397306;32;20171;-67
2021/11/02 15:48:18;;;;;;;48.80;25.87;;;8.30;99.90;;;;;;4396504;32;20510;-68
2021/11/02 15:50:52;;;;;;;51.20;26.07;;;8.20;99.90;;;;;;4409653;32;20151;-68
2021/11/02 15:53:28;;;;;;;51.30;27.47;;;8.20;99.90;;;;;;4399097;32;20174;-68
2021/11/02 15:56:00;;;;;;;50.33;27.57;;;8.20;99.90;;;;;;4381703;32;20179;-68
2021/11/02 15:58:28;;;;;;;51.80;28.67;;;8.20;99.90;;;;;;4381033;32;20183;-68
2021/11/02 16:00:55;;;;;;;52.07;28.13;;;8.20;99.90;;;;;;4381522;32;20190;-68
2021/11/02 16:03:34;;;;;;;53.53;28.70;;;8.30;99.90;;;;;;4381329;32;20207;-67
2021/11/02 16:06:05;;;;;;;55.50;28.30;;;8.20;99.90;;;;;;4381969;32;20202;-68
2021/11/02 16:08:34;;;;;;;57.97;29.93;;;8.20;99.90;;;;;;4380265;32;20576;-68
2021/11/02 16:11:10;;;;;;;57.03;30.23;;;8.20;99.90;;;;;;4381239;32;20198;-68
2021/11/02 16:13:41;;;;;;;59.23;30.57;;;8.20;99.90;;;;;;4382818;32;20162;-67
2021/11/02 16:16:08;;;;;;;60.27;31.10;;;8.20;99.90;;;;;;4395139;32;20175;-67
2021/11/02 16:18:37;;;;;;;64.20;31.20;;;8.10;99.90;;;;;;4380212;32;20281;-67
2021/11/02 16:21:07;;;;;;;62.07;32.50;;;8.10;99.90;;;;;;4381875;32;20214;-67
2021/11/02 16:23:54;;;;;;;60.33;30.47;;;8.10;99.90;;;;;;4392137;32;20206;-68
2021/11/02 16:26:27;;;;;;;64.33;31.80;;;8.10;99.90;;;;;;4401100;32;20501;-67
2021/11/02 16:29:17;;;;;;;62.30;31.40;;;8.10;99.90;;;;;;4380442;32;20214;-68
2021/11/02 16:31:46;;;;;;;63.53;32.00;;;8.10;99.90;;;;;;4381497;32;20241;-67
2021/11/02 16:34:19;;;;;;;63.87;33.13;;;8.20;99.90;;;;;;4392917;32;20508;-67
2021/11/02 16:36:46;;;;;;;64.73;32.77;;;8.10;99.90;;;;;;4397310;32;20183;-67
2021/11/02 16:39:13;;;;;;;65.27;34.10;;;8.10;99.90;;;;;;4409510;32;20220;-67
2021/11/02 16:41:57;;;;;;;65.67;33.43;;;8.10;99.90;;;;;;4396540;32;20187;-67
2021/11/02 16:44:29;;;;;;;68.13;33.70;;;8.00;99.90;;;;;;4410561;32;20185;-67
2021/11/02 16:47:02;;;;;;;63.63;33.33;;;8.00;99.90;;;;;;4383753;32;20198;-67
2021/11/02 16:49:30;;;;;;;66.97;33.37;;;8.00;99.90;;;;;;4395247;32;20246;-67
2021/11/02 16:51:59;;;;;;;69.13;34.17;;;8.00;99.90;;;;;;4396796;32;20179;-68
2021/11/02 16:54:28;;;;;;;70.37;34.70;;;7.90;99.90;;;;;;4397043;32;20209;-67
2021/11/02 16:57:04;;;;;;;70.57;33.23;;;7.90;99.90;;;;;;4395657;32;20572;-67
2021/11/02 16:59:40;;;;;;;65.93;33.40;;;7.90;99.90;;;;;;4396238;32;20174;-67
2021/11/02 17:02:36;;;;;;;71.47;34.57;;;7.80;99.90;;;;;;4395749;32;20212;-67
2021/11/02 17:05:06;;;;;;;69.27;33.70;;;7.70;99.90;;;;;;4388549;32;20229;-67
2021/11/02 17:07:50;;;;;;;63.93;33.00;;;7.70;99.90;;;;;;4400668;32;20160;-67
2021/11/02 17:10:23;;;;;;;66.60;33.23;;;7.60;99.90;;;;;;4394864;32;20167;-67
2021/11/02 17:12:57;;;;;;;71.03;34.77;;;7.60;99.90;;;;;;4382053;32;20178;-67
2021/11/02 17:15:29;;;;;;;68.33;33.53;;;7.50;99.90;;;;;;4380668;32;20234;-67
2021/11/02 17:17:57;;;;;;;71.20;33.77;;;7.50;99.90;;;;;;4380349;32;20171;-67
2021/11/02 17:20:26;;;;;;;70.27;32.53;;;7.40;99.90;;;;;;4381434;32;20251;-67
2021/11/02 17:22:53;;;;;;;71.10;34.23;;;7.40;99.90;;;;;;4395386;32;20273;-66
2021/11/02 17:25:22;;;;;;;72.33;33.57;;;7.40;99.90;;;;;;4380635;32;20201;-66
2021/11/02 17:27:53;;;;;;;72.27;34.50;;;7.30;99.90;;;;;;4394184;32;20202;-66
2021/11/02 17:30:25;;;;;;;74.53;34.87;;;7.30;99.90;;;;;;4381151;32;20179;-67
2021/11/02 17:32:56;;;;;;;71.77;33.70;;;7.30;99.90;;;;;;4383710;32;20201;-66
2021/11/02 17:35:24;;;;;;;70.83;33.70;;;7.30;99.90;;;;;;4395372;32;20174;-66
2021/11/02 17:37:55;;;;;;;74.57;35.27;;;7.20;99.90;;;;;;4410445;32;20182;-67
2021/11/02 17:40:24;;;;;;;72.60;33.43;;;7.10;99.90;;;;;;4408958;32;20139;-67
2021/11/02 17:42:59;;;;;;;75.77;35.23;;;7.10;99.90;;;;;;4384252;32;20250;-67
2021/11/02 17:45:28;;;;;;;77.40;35.87;;;7.10;99.90;;;;;;4395323;32;20189;-67
2021/11/02 17:47:57;;;;;;;75.73;35.53;;;7.00;99.90;;;;;;4389984;32;20508;-67
2021/11/02 17:50:29;;;;;;;73.37;33.57;;;7.00;99.90;;;;;;4385299;32;20249;-67
2021/11/02 17:52:57;;;;;;;75.63;35.97;;;7.00;99.90;;;;;;4380929;32;20234;-67